createdAt,value
2019-05-16T00:04:02.567Z,8.77
2019-05-16T00:19:02.789Z,8.62
2019-05-16T00:34:02.981Z,8.50
2019-05-16T00:49:03.107Z,8.53
2019-05-16T01:04:03.199Z,8.33
2019-05-16T03:14:12.806Z,9.99
2019-05-16T03:29:12.938Z,9.21
2019-05-16T03:44:13.418Z,8.68
2019-05-16T03:59:32.737Z,8.53
2019-05-16T04:14:33.603Z,8.43
2019-05-16T04:29:34.108Z,8.38
2019-05-16T04:44:34.277Z,8.37
2019-05-16T04:59:34.497Z,8.26
2019-05-16T05:14:34.679Z,8.40
2019-05-16T05:29:34.829Z,8.37
2019-05-16T05:44:35.037Z,8.34
2019-05-16T05:59:35.282Z,8.52
2019-05-16T06:14:35.451Z,8.56
2019-05-16T06:29:35.664Z,8.79
2019-05-16T06:44:35.870Z,8.91
2019-05-16T06:59:36.062Z,9.04
2019-05-16T07:14:36.262Z,9.01
2019-05-16T07:29:37.115Z,9.04
2019-05-16T07:44:37.695Z,9.23
2019-05-16T07:59:40.440Z,9.36
2019-05-16T08:14:41.204Z,9.54
2019-05-16T08:29:41.401Z,9.81
2019-05-16T08:44:41.914Z,9.79
2019-05-16T08:59:42.658Z,9.84
2019-05-16T09:14:42.845Z,9.99
2019-05-16T09:29:43.049Z,10.18
2019-05-16T09:44:43.178Z,10.22
2019-05-16T09:59:43.362Z,10.17
2019-05-16T10:14:43.511Z,10.25
2019-05-16T10:29:43.673Z,10.30
2019-05-16T10:44:43.894Z,10.40
2019-05-16T11:00:04.245Z,10.70
2019-05-16T11:14:49.208Z,10.92
2019-05-16T11:29:49.366Z,11.18
2019-05-16T11:44:49.529Z,11.35
2019-05-16T11:59:49.706Z,11.36
2019-05-16T12:14:49.844Z,11.52
2019-05-16T12:29:54.846Z,11.62
2019-05-16T12:44:56.315Z,11.72
2019-05-16T12:59:57.017Z,12.01
2019-05-16T13:14:57.425Z,12.37
2019-05-16T13:29:58.246Z,12.38
2019-05-16T13:44:58.865Z,12.32
2019-05-16T13:59:59.181Z,12.70
2019-05-16T14:14:59.380Z,12.86
2019-05-16T14:29:59.575Z,13.11
2019-05-16T14:45:11.210Z,13.36
2019-05-16T15:00:07.200Z,13.69
2019-05-16T15:15:20.206Z,13.67
2019-05-16T15:30:13.947Z,13.39
2019-05-16T15:45:14.065Z,13.20
2019-05-16T16:00:17.988Z,13.07
2019-05-16T16:15:18.419Z,13.08
2019-05-16T16:30:18.839Z,12.92
2019-05-16T16:45:18.733Z,12.75
2019-05-16T17:00:18.896Z,12.62
2019-05-16T17:15:19.044Z,12.53
2019-05-16T17:30:19.211Z,12.49
2019-05-16T17:45:19.319Z,12.37
2019-05-16T18:00:25.348Z,12.38
2019-05-16T18:15:25.888Z,12.47
2019-05-16T18:30:27.100Z,12.35
2019-05-16T18:45:27.231Z,12.34
2019-05-16T19:00:27.370Z,12.20
2019-05-16T19:15:27.554Z,12.24
2019-05-16T19:30:27.683Z,12.17
2019-05-16T19:45:27.896Z,11.99
2019-05-16T20:00:28.109Z,11.88
2019-05-16T20:15:28.239Z,11.78
2019-05-16T20:30:28.394Z,11.86
2019-05-16T20:45:28.600Z,11.73
2019-05-16T21:00:28.824Z,11.57
2019-05-16T21:15:29.023Z,11.55
2019-05-16T21:30:29.235Z,11.47
2019-05-16T21:45:29.390Z,11.52
2019-05-16T22:00:29.553Z,11.54
2019-05-16T22:15:29.727Z,11.57
2019-05-16T22:30:29.958Z,11.51
2019-05-16T22:45:30.155Z,11.44
2019-05-16T23:00:30.374Z,11.27
2019-05-16T23:15:30.572Z,10.84
2019-05-16T23:30:30.765Z,10.18
2019-05-16T23:45:31.005Z,9.54
